sensor_id;sensor_type;location;lat;lon;timestamp;pressure;altitude;pressure_sealevel;temperature;humidity
51297;BME280;37380;45.186;9.792;2023-01-29T00:00:36;101906.56;;;-0.88;100.00
51297;BME280;37380;45.186;9.792;2023-01-29T00:03:03;101773.41;;;-1.81;100.00
51297;BME280;37380;45.186;9.792;2023-01-29T00:05:33;101939.19;;;-0.61;100.00
51297;BME280;37380;45.186;9.792;2023-01-29T00:08:00;101940.72;;;-0.63;100.00
51297;BME280;37380;45.186;9.792;2023-01-29T00:10:28;101907.66;;;-0.86;100.00
51297;BME280;37380;45.186;9.792;2023-01-29T00:13:01;101750.53;;;-1.71;100.00
51297;BME280;37380;45.186;9.792;2023-01-29T00:15:57;101947.03;;;-0.86;100.00
51297;BME280;37380;45.186;9.792;2023-01-29T00:18:25;101789.88;;;-1.70;100.00
51297;BME280;37380;45.186;9.792;2023-01-29T00:20:53;101864.69;;;-1.48;100.00
51297;BME280;37380;45.186;9.792;2023-01-29T00:23:20;101934.28;;;-1.28;100.00
51297;BME280;37380;45.186;9.792;2023-01-29T00:25:53;101762.72;;;-2.28;100.00
51297;BME280;37380;45.186;9.792;2023-01-29T00:28:57;101835.88;;;-1.54;100.00
51297;BME280;37380;45.186;9.792;2023-01-29T00:31:59;101791.16;;;-1.91;100.00
51297;BME280;37380;45.186;9.792;2023-01-29T00:34:53;101884.16;;;-1.42;100.00
51297;BME280;37380;45.186;9.792;2023-01-29T00:37:20;101900.78;;;-1.21;100.00
51297;BME280;37380;45.186;9.792;2023-01-29T00:39:47;101868.63;;;-1.43;100.00
51297;BME280;37380;45.186;9.792;2023-01-29T00:42:14;101713.41;;;-2.42;100.00
51297;BME280;37380;45.186;9.792;2023-01-29T00:44:59;101834.44;;;-1.86;100.00
51297;BME280;37380;45.186;9.792;2023-01-29T00:47:27;101931.41;;;-1.14;100.00
51297;BME280;37380;45.186;9.792;2023-01-29T00:50:00;101751.16;;;-2.15;100.00
51297;BME280;37380;45.186;9.792;2023-01-29T00:52:27;101691.00;;;-2.78;100.00
51297;BME280;37380;45.186;9.792;2023-01-29T00:54:57;101863.31;;;-1.53;100.00
51297;BME280;37380;45.186;9.792;2023-01-29T00:57:26;101936.03;;;-1.44;100.00
51297;BME280;37380;45.186;9.792;2023-01-29T00:59:54;101759.75;;;-2.48;100.00
51297;BME280;37380;45.186;9.792;2023-01-29T01:02:21;101942.69;;;-1.29;100.00
51297;BME280;37380;45.186;9.792;2023-01-29T01:05:09;101703.56;;;-2.64;100.00
51297;BME280;37380;45.186;9.792;2023-01-29T01:07:49;101942.09;;;-1.35;100.00
51297;BME280;37380;45.186;9.792;2023-01-29T01:10:30;101954.47;;;-1.22;100.00
51297;BME280;37380;45.186;9.792;2023-01-29T01:13:06;101956.00;;;-1.24;100.00
51297;BME280;37380;45.186;9.792;2023-01-29T01:16:00;101902.25;;;-1.82;100.00
51297;BME280;37380;45.186;9.792;2023-01-29T01:18:30;101970.69;;;-1.48;100.00
51297;BME280;37380;45.186;9.792;2023-01-29T01:20:58;101947.44;;;-1.49;100.00
51297;BME280;37380;45.186;9.792;2023-01-29T01:23:25;101690.25;;;-3.26;100.00
51297;BME280;37380;45.186;9.792;2023-01-29T01:26:00;101958.63;;;-1.40;100.00
51297;BME280;37380;45.186;9.792;2023-01-29T01:29:00;101782.28;;;-2.28;100.00
51297;BME280;37380;45.186;9.792;2023-01-29T01:32:02;101960.38;;;-1.23;100.00
51297;BME280;37380;45.186;9.792;2023-01-29T01:35:03;101768.66;;;-2.44;100.00
51297;BME280;37380;45.186;9.792;2023-01-29T01:38:04;101949.84;;;-1.60;100.00
51297;BME280;37380;45.186;9.792;2023-01-29T01:40:52;101849.16;;;-2.25;100.00
51297;BME280;37380;45.186;9.792;2023-01-29T01:43:19;101960.69;;;-1.62;100.00
51297;BME280;37380;45.186;9.792;2023-01-29T01:45:46;101880.50;;;-2.19;100.00
51297;BME280;37380;45.186;9.792;2023-01-29T01:48:23;101962.97;;;-1.81;100.00
51297;BME280;37380;45.186;9.792;2023-01-29T01:50:59;101716.44;;;-3.20;100.00
51297;BME280;37380;45.186;9.792;2023-01-29T01:53:33;101920.63;;;-2.11;100.00
51297;BME280;37380;45.186;9.792;2023-01-29T01:56:07;101945.34;;;-1.78;100.00
51297;BME280;37380;45.186;9.792;2023-01-29T01:58:56;101794.56;;;-2.66;100.00
51297;BME280;37380;45.186;9.792;2023-01-29T02:01:25;101713.56;;;-3.23;100.00
51297;BME280;37380;45.186;9.792;2023-01-29T02:04:00;101870.34;;;-2.35;100.00
51297;BME280;37380;45.186;9.792;2023-01-29T02:06:47;101760.06;;;-2.78;100.00
51297;BME280;37380;45.186;9.792;2023-01-29T02:09:38;101957.72;;;-1.49;100.00
51297;BME280;37380;45.186;9.792;2023-01-29T02:12:14;101811.66;;;-2.24;100.00
51297;BME280;37380;45.186;9.792;2023-01-29T02:15:10;101990.41;;;-1.55;100.00
51297;BME280;37380;45.186;9.792;2023-01-29T02:17:38;101917.31;;;-1.85;100.00
51297;BME280;37380;45.186;9.792;2023-01-29T02:20:22;101794.84;;;-2.47;100.00
51297;BME280;37380;45.186;9.792;2023-01-29T02:30:02;101988.47;;;-1.49;100.00
51297;BME280;37380;45.186;9.792;2023-01-29T02:36:30;102001.19;;;-1.67;100.00
51297;BME280;37380;45.186;9.792;2023-01-29T02:39:12;101986.78;;;-1.82;100.00
51297;BME280;37380;45.186;9.792;2023-01-29T02:42:02;101990.75;;;-1.77;100.00
51297;BME280;37380;45.186;9.792;2023-01-29T02:44:49;101988.59;;;-1.81;100.00
51297;BME280;37380;45.186;9.792;2023-01-29T02:50:23;101985.31;;;-1.80;100.00
51297;BME280;37380;45.186;9.792;2023-01-29T02:53:14;101772.03;;;-2.86;100.00
51297;BME280;37380;45.186;9.792;2023-01-29T02:56:18;101985.03;;;-1.74;100.00
51297;BME280;37380;45.186;9.792;2023-01-29T02:58:58;101942.78;;;-2.27;100.00
51297;BME280;37380;45.186;9.792;2023-01-29T03:01:36;101879.88;;;-2.49;100.00
51297;BME280;37380;45.186;9.792;2023-01-29T03:04:10;101636.16;;;-4.03;100.00
51297;BME280;37380;45.186;9.792;2023-01-29T03:06:44;101980.44;;;-2.10;100.00
51297;BME280;37380;45.186;9.792;2023-01-29T03:12:14;101986.75;;;-2.31;100.00
51297;BME280;37380;45.186;9.792;2023-01-29T03:15:34;101990.13;;;-2.23;100.00
51297;BME280;37380;45.186;9.792;2023-01-29T03:18:57;101997.97;;;-2.22;100.00
51297;BME280;37380;45.186;9.792;2023-01-29T03:21:42;101989.88;;;-2.18;100.00
51297;BME280;37380;45.186;9.792;2023-01-29T03:24:54;101802.78;;;-3.33;100.00
51297;BME280;37380;45.186;9.792;2023-01-29T03:27:48;101866.44;;;-2.56;100.00
51297;BME280;37380;45.186;9.792;2023-01-29T03:30:57;101850.31;;;-2.79;100.00
51297;BME280;37380;45.186;9.792;2023-01-29T03:34:22;101987.38;;;-1.85;100.00
51297;BME280;37380;45.186;9.792;2023-01-29T03:37:07;102017.38;;;-1.59;100.00
51297;BME280;37380;45.186;9.792;2023-01-29T03:39:40;101880.19;;;-2.46;100.00
51297;BME280;37380;45.186;9.792;2023-01-29T03:42:17;101975.78;;;-1.81;100.00
51297;BME280;37380;45.186;9.792;2023-01-29T03:50:56;101712.00;;;-3.30;100.00
51297;BME280;37380;45.186;9.792;2023-01-29T03:59:01;102026.81;;;-1.42;100.00
51297;BME280;37380;45.186;9.792;2023-01-29T04:02:08;101982.47;;;-1.74;100.00
51297;BME280;37380;45.186;9.792;2023-01-29T04:05:20;101977.16;;;-2.25;100.00
51297;BME280;37380;45.186;9.792;2023-01-29T04:08:27;102005.88;;;-2.12;100.00
51297;BME280;37380;45.186;9.792;2023-01-29T04:11:07;101872.19;;;-2.90;100.00
51297;BME280;37380;45.186;9.792;2023-01-29T04:13:44;101826.47;;;-3.43;100.00
51297;BME280;37380;45.186;9.792;2023-01-29T04:16:52;101968.47;;;-2.18;100.00
51297;BME280;37380;45.186;9.792;2023-01-29T04:20:37;102010.03;;;-2.21;100.00
51297;BME280;37380;45.186;9.792;2023-01-29T04:23:31;101871.13;;;-3.08;100.00
51297;BME280;37380;45.186;9.792;2023-01-29T04:26:18;102023.09;;;-2.26;100.00
51297;BME280;37380;45.186;9.792;2023-01-29T04:29:15;102016.19;;;-2.19;100.00
51297;BME280;37380;45.186;9.792;2023-01-29T04:32:36;102016.00;;;-1.89;100.00
51297;BME280;37380;45.186;9.792;2023-01-29T04:35:20;102017.09;;;-2.02;100.00
51297;BME280;37380;45.186;9.792;2023-01-29T04:38:04;102017.47;;;-2.31;100.00
51297;BME280;37380;45.186;9.792;2023-01-29T04:40:55;101898.66;;;-3.21;100.00
51297;BME280;37380;45.186;9.792;2023-01-29T04:50:29;102038.09;;;-2.14;100.00
51297;BME280;37380;45.186;9.792;2023-01-29T04:53:14;102016.97;;;-2.20;100.00
51297;BME280;37380;45.186;9.792;2023-01-29T04:55:51;101787.97;;;-3.60;100.00
51297;BME280;37380;45.186;9.792;2023-01-29T04:58:53;101794.13;;;-3.58;100.00
51297;BME280;37380;45.186;9.792;2023-01-29T05:01:37;101824.81;;;-3.43;100.00
51297;BME280;37380;45.186;9.792;2023-01-29T05:04:17;101692.38;;;-3.94;100.00
51297;BME280;37380;45.186;9.792;2023-01-29T05:06:51;102032.97;;;-2.14;100.00
51297;BME280;37380;45.186;9.792;2023-01-29T05:09:19;102027.13;;;-2.29;100.00
51297;BME280;37380;45.186;9.792;2023-01-29T05:11:54;101896.28;;;-3.20;100.00
51297;BME280;37380;45.186;9.792;2023-01-29T05:14:49;102027.31;;;-2.59;100.00
51297;BME280;37380;45.186;9.792;2023-01-29T05:17:18;101977.19;;;-2.88;100.00
51297;BME280;37380;45.186;9.792;2023-01-29T05:19:54;101856.94;;;-3.45;100.00
51297;BME280;37380;45.186;9.792;2023-01-29T05:22:56;101732.28;;;-4.26;100.00
51297;BME280;37380;45.186;9.792;2023-01-29T05:25:51;102041.09;;;-2.49;100.00
51297;BME280;37380;45.186;9.792;2023-01-29T05:28:18;102033.34;;;-2.58;100.00
51297;BME280;37380;45.186;9.792;2023-01-29T05:30:54;102088.97;;;-2.48;100.00
51297;BME280;37380;45.186;9.792;2023-01-29T05:33:48;101656.59;;;-4.81;100.00
51297;BME280;37380;45.186;9.792;2023-01-29T05:36:18;101824.19;;;-3.72;100.00
51297;BME280;37380;45.186;9.792;2023-01-29T05:39:02;101849.41;;;-3.59;100.00
51297;BME280;37380;45.186;9.792;2023-01-29T05:41:32;102050.38;;;-2.18;100.00
51297;BME280;37380;45.186;9.792;2023-01-29T05:44:10;101746.84;;;-3.87;100.00
51297;BME280;37380;45.186;9.792;2023-01-29T05:46:54;101825.63;;;-3.51;100.00
51297;BME280;37380;45.186;9.792;2023-01-29T05:49:36;101806.31;;;-3.72;100.00
51297;BME280;37380;45.186;9.792;2023-01-29T05:52:23;101939.75;;;-3.04;100.00
51297;BME280;37380;45.186;9.792;2023-01-29T05:55:08;101890.16;;;-3.45;100.00
51297;BME280;37380;45.186;9.792;2023-01-29T05:58:09;101940.69;;;-3.26;100.00
51297;BME280;37380;45.186;9.792;2023-01-29T06:01:14;101933.44;;;-3.30;100.00
51297;BME280;37380;45.186;9.792;2023-01-29T06:04:08;102045.03;;;-2.44;100.00
51297;BME280;37380;45.186;9.792;2023-01-29T06:06:46;101926.50;;;-3.47;100.00
51297;BME280;37380;45.186;9.792;2023-01-29T06:09:17;101893.75;;;-3.58;100.00
51297;BME280;37380;45.186;9.792;2023-01-29T06:11:54;101825.56;;;-3.82;100.00
51297;BME280;37380;45.186;9.792;2023-01-29T06:14:46;101841.75;;;-3.75;100.00
51297;BME280;37380;45.186;9.792;2023-01-29T06:17:16;102107.69;;;-2.57;100.00
51297;BME280;37380;45.186;9.792;2023-01-29T06:19:49;101833.31;;;-3.90;100.00
51297;BME280;37380;45.186;9.792;2023-01-29T06:22:35;101831.59;;;-4.05;100.00
51297;BME280;37380;45.186;9.792;2023-01-29T06:25:15;101827.41;;;-4.04;100.00
51297;BME280;37380;45.186;9.792;2023-01-29T06:27:58;101947.03;;;-3.38;100.00
51297;BME280;37380;45.186;9.792;2023-01-29T06:31:01;101945.25;;;-3.24;100.00
51297;BME280;37380;45.186;9.792;2023-01-29T06:34:17;101954.91;;;-3.21;100.00
51297;BME280;37380;45.186;9.792;2023-01-29T06:36:51;102084.66;;;-2.57;100.00
51297;BME280;37380;45.186;9.792;2023-01-29T06:39:23;101793.63;;;-4.41;100.00
51297;BME280;37380;45.186;9.792;2023-01-29T06:42:21;101715.00;;;-4.75;100.00
51297;BME280;37380;45.186;9.792;2023-01-29T06:45:18;101915.38;;;-3.71;100.00
51297;BME280;37380;45.186;9.792;2023-01-29T06:47:45;102032.59;;;-3.12;100.00
51297;BME280;37380;45.186;9.792;2023-01-29T06:50:12;101967.66;;;-3.37;100.00
51297;BME280;37380;45.186;9.792;2023-01-29T06:52:39;102109.44;;;-2.48;100.00
51297;BME280;37380;45.186;9.792;2023-01-29T06:55:07;102075.25;;;-2.65;100.00
51297;BME280;37380;45.186;9.792;2023-01-29T06:57:34;101920.72;;;-3.53;100.00
51297;BME280;37380;45.186;9.792;2023-01-29T07:00:02;101994.78;;;-3.30;100.00
51297;BME280;37380;45.186;9.792;2023-01-29T07:02:47;102104.94;;;-2.74;100.00
51297;BME280;37380;45.186;9.792;2023-01-29T07:06:38;102143.41;;;-2.26;100.00
51297;BME280;37380;45.186;9.792;2023-01-29T07:09:55;101875.56;;;-3.46;100.00
51297;BME280;37380;45.186;9.792;2023-01-29T07:12:42;102035.88;;;-2.90;100.00
51297;BME280;37380;45.186;9.792;2023-01-29T07:15:43;102043.53;;;-2.74;100.00
51297;BME280;37380;45.186;9.792;2023-01-29T07:18:39;102156.03;;;-1.96;100.00
51297;BME280;37380;45.186;9.792;2023-01-29T07:21:07;102145.03;;;-1.95;100.00
51297;BME280;37380;45.186;9.792;2023-01-29T07:23:34;102077.44;;;-2.29;100.00
51297;BME280;37380;45.186;9.792;2023-01-29T07:26:03;102145.13;;;-1.71;100.00
51297;BME280;37380;45.186;9.792;2023-01-29T07:28:31;102153.28;;;-1.66;100.00
51297;BME280;37380;45.186;9.792;2023-01-29T07:31:05;102034.47;;;-2.32;100.00
51297;BME280;37380;45.186;9.792;2023-01-29T07:34:06;102100.72;;;-2.03;100.00
51297;BME280;37380;45.186;9.792;2023-01-29T07:37:00;102110.53;;;-1.58;100.00
51297;BME280;37380;45.186;9.792;2023-01-29T07:39:27;102121.38;;;-1.61;100.00
51297;BME280;37380;45.186;9.792;2023-01-29T07:41:55;102155.16;;;-1.16;100.00
51297;BME280;37380;45.186;9.792;2023-01-29T07:44:22;102037.72;;;-1.85;100.00
51297;BME280;37380;45.186;9.792;2023-01-29T07:47:08;101976.81;;;-1.88;100.00
51297;BME280;37380;45.186;9.792;2023-01-29T07:50:03;102144.59;;;-0.86;100.00
51297;BME280;37380;45.186;9.792;2023-01-29T07:52:32;101809.53;;;-2.62;100.00
51297;BME280;37380;45.186;9.792;2023-01-29T07:55:03;101949.22;;;-1.66;100.00
51297;BME280;37380;45.186;9.792;2023-01-29T07:57:35;102224.47;;;-0.16;100.00
51297;BME280;37380;45.186;9.792;2023-01-29T08:00:08;102195.97;;;0.07;100.00
51297;BME280;37380;45.186;9.792;2023-01-29T08:02:40;102169.06;;;0.03;100.00
51297;BME280;37380;45.186;9.792;2023-01-29T08:05:07;101966.63;;;-1.04;100.00
51297;BME280;37380;45.186;9.792;2023-01-29T08:07:35;102200.91;;;-0.04;100.00
51297;BME280;37380;45.186;9.792;2023-01-29T08:10:05;101972.06;;;-1.76;100.00
51297;BME280;37380;45.186;9.792;2023-01-29T08:12:45;101981.44;;;-1.68;100.00
51297;BME280;37380;45.186;9.792;2023-01-29T08:15:43;101799.78;;;-2.48;100.00
51297;BME280;37380;45.186;9.792;2023-01-29T08:18:13;102055.09;;;-0.83;100.00
51297;BME280;37380;45.186;9.792;2023-01-29T08:20:51;101977.06;;;-1.35;100.00
51297;BME280;37380;45.186;9.792;2023-01-29T08:23:52;102135.03;;;-0.62;100.00
51297;BME280;37380;45.186;9.792;2023-01-29T08:26:47;101836.34;;;-2.00;100.00
51297;BME280;37380;45.186;9.792;2023-01-29T08:29:21;101990.28;;;-1.15;100.00
51297;BME280;37380;45.186;9.792;2023-01-29T08:32:15;101986.28;;;-0.78;100.00
51297;BME280;37380;45.186;9.792;2023-01-29T08:34:57;102222.13;;;0.98;100.00
51297;BME280;37380;45.186;9.792;2023-01-29T08:37:38;102037.78;;;0.45;100.00
51297;BME280;37380;45.186;9.792;2023-01-29T08:40:11;102222.94;;;1.33;100.00
51297;BME280;37380;45.186;9.792;2023-01-29T08:42:43;101917.72;;;-0.18;100.00
51297;BME280;37380;45.186;9.792;2023-01-29T08:45:11;101993.16;;;0.44;100.00
51297;BME280;37380;45.186;9.792;2023-01-29T08:47:47;101987.66;;;0.59;100.00
51297;BME280;37380;45.186;9.792;2023-01-29T08:50:15;102204.28;;;1.81;100.00
51297;BME280;37380;45.186;9.792;2023-01-29T08:52:44;102243.59;;;2.25;100.00
51297;BME280;37380;45.186;9.792;2023-01-29T08:55:19;102190.56;;;1.91;100.00
51297;BME280;37380;45.186;9.792;2023-01-29T08:58:13;102119.50;;;1.56;100.00
51297;BME280;37380;45.186;9.792;2023-01-29T09:01:14;102018.19;;;1.28;100.00
51297;BME280;37380;45.186;9.792;2023-01-29T09:04:08;101901.25;;;0.88;100.00
51297;BME280;37380;45.186;9.792;2023-01-29T09:06:36;102073.25;;;2.04;100.00
51297;BME280;37380;45.186;9.792;2023-01-29T09:09:03;102246.19;;;3.11;100.00
51297;BME280;37380;45.186;9.792;2023-01-29T09:11:37;102235.13;;;3.12;100.00
51297;BME280;37380;45.186;9.792;2023-01-29T09:14:36;102120.00;;;2.18;100.00
51297;BME280;37380;45.186;9.792;2023-01-29T09:17:03;102143.28;;;1.90;100.00
51297;BME280;37380;45.186;9.792;2023-01-29T09:19:32;102087.19;;;1.13;100.00
51297;BME280;37380;45.186;9.792;2023-01-29T09:21:59;102266.09;;;1.90;100.00
51297;BME280;37380;45.186;9.792;2023-01-29T09:24:27;102128.38;;;1.13;100.00
51297;BME280;37380;45.186;9.792;2023-01-29T09:27:15;102104.81;;;0.92;100.00
51297;BME280;37380;45.186;9.792;2023-01-29T09:30:16;102114.25;;;1.19;100.00
51297;BME280;37380;45.186;9.792;2023-01-29T09:33:10;102262.31;;;2.14;100.00
51297;BME280;37380;45.186;9.792;2023-01-29T09:35:41;101883.63;;;0.10;100.00
51297;BME280;37380;45.186;9.792;2023-01-29T09:38:09;102276.09;;;2.42;100.00
51297;BME280;37380;45.186;9.792;2023-01-29T09:40:49;102262.19;;;2.31;100.00
51297;BME280;37380;45.186;9.792;2023-01-29T09:49:28;102252.03;;;2.89;100.00
51297;BME280;37380;45.186;9.792;2023-01-29T09:52:03;102013.94;;;1.29;100.00
51297;BME280;37380;45.186;9.792;2023-01-29T09:54:32;102260.25;;;3.23;100.00
51297;BME280;37380;45.186;9.792;2023-01-29T09:57:09;102254.03;;;3.02;100.00
51297;BME280;37380;45.186;9.792;2023-01-29T09:59:51;102289.34;;;2.93;100.00
51297;BME280;37380;45.186;9.792;2023-01-29T10:12:39;102244.66;;;4.73;100.00
51297;BME280;37380;45.186;9.792;2023-01-29T10:15:53;102243.13;;;4.24;100.00
51297;BME280;37380;45.186;9.792;2023-01-29T10:18:48;102248.06;;;3.51;100.00
51297;BME280;37380;45.186;9.792;2023-01-29T10:24:36;102211.75;;;3.50;100.00
51297;BME280;37380;45.186;9.792;2023-01-29T10:27:15;102099.69;;;2.50;100.00
51297;BME280;37380;45.186;9.792;2023-01-29T10:29:51;102202.63;;;3.24;100.00
51297;BME280;37380;45.186;9.792;2023-01-29T10:32:48;102102.94;;;2.87;100.00
51297;BME280;37380;45.186;9.792;2023-01-29T10:35:21;102099.63;;;2.98;100.00
51297;BME280;37380;45.186;9.792;2023-01-29T10:37:57;102095.56;;;3.21;100.00
51297;BME280;37380;45.186;9.792;2023-01-29T10:41:13;102222.81;;;3.88;100.00
51297;BME280;37380;45.186;9.792;2023-01-29T10:44:40;102212.47;;;3.88;100.00
51297;BME280;37380;45.186;9.792;2023-01-29T10:50:24;102015.53;;;4.14;100.00
51297;BME280;37380;45.186;9.792;2023-01-29T11:00:09;102202.22;;;4.61;100.00
51297;BME280;37380;45.186;9.792;2023-01-29T11:02:43;102007.34;;;3.67;100.00
51297;BME280;37380;45.186;9.792;2023-01-29T11:05:40;102182.00;;;4.78;100.00
51297;BME280;37380;45.186;9.792;2023-01-29T11:08:14;102178.53;;;4.99;100.00
51297;BME280;37380;45.186;9.792;2023-01-29T11:16:52;102035.75;;;4.30;100.00
51297;BME280;37380;45.186;9.792;2023-01-29T11:23:30;101962.19;;;5.38;100.00
51297;BME280;37380;45.186;9.792;2023-01-29T11:26:25;101976.19;;;4.72;100.00
51297;BME280;37380;45.186;9.792;2023-01-29T11:28:59;102028.06;;;5.63;100.00
51297;BME280;37380;45.186;9.792;2023-01-29T11:31:59;102118.00;;;6.55;100.00
51297;BME280;37380;45.186;9.792;2023-01-29T11:34:29;102033.47;;;6.35;100.00
51297;BME280;37380;45.186;9.792;2023-01-29T11:37:04;101949.31;;;6.08;100.00
51297;BME280;37380;45.186;9.792;2023-01-29T11:39:48;102123.41;;;7.31;100.00
51297;BME280;37380;45.186;9.792;2023-01-29T11:42:21;101992.16;;;6.87;100.00
51297;BME280;37380;45.186;9.792;2023-01-29T11:44:49;102091.63;;;7.35;100.00
51297;BME280;37380;45.186;9.792;2023-01-29T11:47:20;102093.91;;;7.55;100.00
51297;BME280;37380;45.186;9.792;2023-01-29T11:49:56;102087.31;;;7.60;100.00
51297;BME280;37380;45.186;9.792;2023-01-29T11:52:33;101972.69;;;6.94;100.00
51297;BME280;37380;45.186;9.792;2023-01-29T11:55:04;102060.78;;;7.53;100.00
51297;BME280;37380;45.186;9.792;2023-01-29T11:57:45;101956.41;;;6.96;100.00
51297;BME280;37380;45.186;9.792;2023-01-29T12:00:45;101737.66;;;5.27;100.00
51297;BME280;37380;45.186;9.792;2023-01-29T12:03:15;102064.56;;;7.19;100.00
51297;BME280;37380;45.186;9.792;2023-01-29T12:05:58;102029.88;;;7.19;100.00
51297;BME280;37380;45.186;9.792;2023-01-29T12:08:34;101752.69;;;5.67;100.00
51297;BME280;37380;45.186;9.792;2023-01-29T12:11:14;102081.97;;;6.84;100.00
51297;BME280;37380;45.186;9.792;2023-01-29T12:14:31;102043.38;;;7.01;100.00
51297;BME280;37380;45.186;9.792;2023-01-29T12:17:14;101965.34;;;6.15;100.00
51297;BME280;37380;45.186;9.792;2023-01-29T12:19:52;102054.09;;;6.22;100.00
51297;BME280;37380;45.186;9.792;2023-01-29T12:25:00;101707.22;;;3.74;100.00
51297;BME280;37380;45.186;9.792;2023-01-29T12:27:50;101832.03;;;4.27;100.00
51297;BME280;37380;45.186;9.792;2023-01-29T12:37:21;101785.31;;;4.14;100.00
51297;BME280;37380;45.186;9.792;2023-01-29T12:40:24;102008.66;;;5.47;100.00
51297;BME280;37380;45.186;9.792;2023-01-29T12:42:56;101980.94;;;5.57;100.00
51297;BME280;37380;45.186;9.792;2023-01-29T12:45:27;101945.00;;;5.05;100.00
51297;BME280;37380;45.186;9.792;2023-01-29T12:48:01;101695.94;;;3.62;100.00
51297;BME280;37380;45.186;9.792;2023-01-29T12:50:33;101878.72;;;4.85;100.00
51297;BME280;37380;45.186;9.792;2023-01-29T12:53:02;102010.47;;;5.48;100.00
51297;BME280;37380;45.186;9.792;2023-01-29T12:55:41;102013.59;;;5.43;100.00
51297;BME280;37380;45.186;9.792;2023-01-29T12:58:21;101977.50;;;5.35;100.00
51297;BME280;37380;45.186;9.792;2023-01-29T13:01:26;102009.16;;;5.64;100.00
51297;BME280;37380;45.186;9.792;2023-01-29T13:07:18;101971.72;;;5.84;100.00
51297;BME280;37380;45.186;9.792;2023-01-29T13:09:58;101757.78;;;4.60;100.00
51297;BME280;37380;45.186;9.792;2023-01-29T13:12:49;101733.44;;;4.46;100.00
51297;BME280;37380;45.186;9.792;2023-01-29T13:15:51;101863.25;;;5.55;100.00
51297;BME280;37380;45.186;9.792;2023-01-29T13:18:49;101660.09;;;4.46;100.00
51297;BME280;37380;45.186;9.792;2023-01-29T13:21:29;101763.69;;;5.16;100.00
51297;BME280;37380;45.186;9.792;2023-01-29T13:24:18;101758.25;;;5.37;100.00
51297;BME280;37380;45.186;9.792;2023-01-29T13:26:47;101776.03;;;5.32;100.00
51297;BME280;37380;45.186;9.792;2023-01-29T13:29:24;101813.25;;;5.21;100.00
51297;BME280;37380;45.186;9.792;2023-01-29T13:32:30;101693.97;;;4.49;100.00
51297;BME280;37380;45.186;9.792;2023-01-29T13:35:25;101992.75;;;6.11;100.00
51297;BME280;37380;45.186;9.792;2023-01-29T13:38:30;101847.41;;;5.39;100.00
51297;BME280;37380;45.186;9.792;2023-01-29T13:41:04;101978.19;;;6.01;100.00
51297;BME280;37380;45.186;9.792;2023-01-29T13:43:38;101821.03;;;5.33;100.00
51297;BME280;37380;45.186;9.792;2023-01-29T13:46:13;101736.66;;;5.01;100.00
51297;BME280;37380;45.186;9.792;2023-01-29T13:48:47;101951.00;;;5.96;100.00
51297;BME280;37380;45.186;9.792;2023-01-29T13:51:19;101789.13;;;5.10;100.00
51297;BME280;37380;45.186;9.792;2023-01-29T13:54:03;101849.09;;;5.27;100.00
51297;BME280;37380;45.186;9.792;2023-01-29T13:59:02;101661.22;;;4.85;100.00
51297;BME280;37380;45.186;9.792;2023-01-29T14:06:58;101793.16;;;5.65;100.00
51297;BME280;37380;45.186;9.792;2023-01-29T14:10:16;101621.59;;;4.74;100.00
51297;BME280;37380;45.186;9.792;2023-01-29T14:12:53;101590.09;;;4.56;100.00
51297;BME280;37380;45.186;9.792;2023-01-29T14:21:21;101685.75;;;4.90;100.00
51297;BME280;37380;45.186;9.792;2023-01-29T14:24:08;101834.19;;;5.71;100.00
51297;BME280;37380;45.186;9.792;2023-01-29T14:29:23;101735.84;;;5.14;100.00
51297;BME280;37380;45.186;9.792;2023-01-29T14:32:21;101580.41;;;4.42;100.00
51297;BME280;37380;45.186;9.792;2023-01-29T14:34:58;101913.09;;;6.10;100.00
51297;BME280;37380;45.186;9.792;2023-01-29T14:37:34;101919.75;;;6.06;100.00
51297;BME280;37380;45.186;9.792;2023-01-29T14:43:16;101696.56;;;4.72;100.00
51297;BME280;37380;45.186;9.792;2023-01-29T14:49:02;101812.00;;;5.39;100.00
51297;BME280;37380;45.186;9.792;2023-01-29T14:51:35;101636.22;;;4.38;100.00
51297;BME280;37380;45.186;9.792;2023-01-29T14:54:23;101797.81;;;5.22;100.00
51297;BME280;37380;45.186;9.792;2023-01-29T14:57:02;101750.16;;;4.97;100.00
51297;BME280;37380;45.186;9.792;2023-01-29T14:59:34;101558.81;;;4.06;100.00
51297;BME280;37380;45.186;9.792;2023-01-29T15:02:19;101598.66;;;4.43;100.00
51297;BME280;37380;45.186;9.792;2023-01-29T15:05:24;101849.75;;;5.59;100.00
51297;BME280;37380;45.186;9.792;2023-01-29T15:08:26;101904.56;;;5.99;100.00
51297;BME280;37380;45.186;9.792;2023-01-29T15:11:34;101689.38;;;4.80;100.00
51297;BME280;37380;45.186;9.792;2023-01-29T15:17:33;101929.31;;;5.72;100.00
51297;BME280;37380;45.186;9.792;2023-01-29T15:22:59;101630.63;;;3.98;100.00
51297;BME280;37380;45.186;9.792;2023-01-29T15:25:58;101548.47;;;3.49;100.00
51297;BME280;37380;45.186;9.792;2023-01-29T15:28:31;101769.47;;;4.55;100.00
51297;BME280;37380;45.186;9.792;2023-01-29T15:31:11;101712.47;;;4.20;100.00
51297;BME280;37380;45.186;9.792;2023-01-29T15:34:06;101752.81;;;4.51;100.00
51297;BME280;37380;45.186;9.792;2023-01-29T15:36:35;101792.09;;;4.58;100.00
51297;BME280;37380;45.186;9.792;2023-01-29T15:41:35;101904.00;;;5.11;100.00
51297;BME280;37380;45.186;9.792;2023-01-29T15:44:11;101618.69;;;3.55;100.00
51297;BME280;37380;45.186;9.792;2023-01-29T15:46:41;101527.56;;;3.12;100.00
51297;BME280;37380;45.186;9.792;2023-01-29T15:49:19;101853.06;;;4.88;100.00
51297;BME280;37380;45.186;9.792;2023-01-29T15:51:57;101803.41;;;4.48;100.00
51297;BME280;37380;45.186;9.792;2023-01-29T15:55:03;101765.56;;;4.26;100.00
51297;BME280;37380;45.186;9.792;2023-01-29T15:57:58;101533.03;;;2.83;100.00
51297;BME280;37380;45.186;9.792;2023-01-29T16:00:28;101900.09;;;4.82;100.00
51297;BME280;37380;45.186;9.792;2023-01-29T16:06:59;101758.63;;;3.81;100.00